Time;durP1;ratioP1;P1;durP2;ratioP2;P2;SDS_P1;SDS_P2;PMS_P1;PMS_P2;Temp;Humidity;BMP_temperature;BMP_pressure;BME280_temperature;BME280_humidity;BME280_pressure;Samples;Min_cycle;Max_cycle;Signal;HPM_P1;HPM_P2
2022/08/01 00:00:32;;;;;;;5.57;2.70;;;;;;;19.87;95.14;101368.81;5013205;28;20036;-78
2022/08/01 00:02:59;;;;;;;4.20;2.80;;;;;;;19.80;95.21;101366.22;5030143;28;20075;-78
2022/08/01 00:05:25;;;;;;;6.43;2.45;;;;;;;19.80;95.39;101367.00;5013371;28;20037;-78
2022/08/01 00:07:50;;;;;;;8.75;3.70;;;;;;;19.78;95.62;101368.25;5009743;28;20666;-79
2022/08/01 00:10:17;;;;;;;5.00;3.00;;;;;;;19.69;95.70;101364.97;4991496;28;20111;-79
2022/08/01 00:12:43;;;;;;;6.55;3.50;;;;;;;19.71;95.81;101362.13;5028738;28;20017;-78
2022/08/01 00:15:12;;;;;;;4.15;2.63;;;;;;;19.74;96.21;101365.19;5024738;28;20076;-78
2022/08/01 00:17:38;;;;;;;3.58;3.08;;;;;;;19.74;96.32;101365.19;4993069;28;20045;-78
2022/08/01 00:20:05;;;;;;;3.80;3.05;;;;;;;19.76;96.47;101367.59;5010646;28;20045;-77
2022/08/01 00:22:32;;;;;;;5.78;3.30;;;;;;;19.76;96.25;101362.34;5020719;28;20052;-78
2022/08/01 00:24:57;;;;;;;3.47;2.83;;;;;;;19.75;96.22;101366.81;5010074;28;20328;-78
2022/08/01 00:27:23;;;;;;;5.75;3.38;;;;;;;19.70;95.90;101363.94;4992818;28;20030;-78
2022/08/01 00:29:48;;;;;;;6.32;2.55;;;;;;;19.71;95.59;101368.19;4993450;28;20099;-79
2022/08/01 00:32:14;;;;;;;6.20;3.08;;;;;;;19.73;95.80;101371.47;5007324;28;20068;-78
2022/08/01 00:34:39;;;;;;;5.13;2.75;;;;;;;19.69;96.20;101367.59;5008720;28;20033;-79
2022/08/01 00:37:04;;;;;;;6.53;3.38;;;;;;;19.66;95.86;101373.25;4993688;28;20135;-81
2022/08/01 00:39:32;;;;;;;6.13;2.95;;;;;;;19.68;96.24;101367.78;4995043;28;20037;-79
2022/08/01 00:41:57;;;;;;;8.23;2.80;;;;;;;19.68;96.30;101367.78;5014957;28;20061;-79
2022/08/01 00:44:23;;;;;;;6.53;2.75;;;;;;;19.76;95.83;101371.06;5028004;28;20061;-79
2022/08/01 00:46:48;;;;;;;6.53;3.22;;;;;;;19.72;95.68;101361.97;5010856;28;20048;-80
2022/08/01 00:49:14;;;;;;;4.68;2.95;;;;;;;19.67;96.35;101368.81;5011634;28;20040;-77
2022/08/01 00:51:39;;;;;;;6.18;3.20;;;;;;;19.61;96.07;101360.72;4992752;28;20033;-79
2022/08/01 00:54:05;;;;;;;4.28;2.83;;;;;;;19.57;96.44;101362.13;5013137;28;20030;-78
2022/08/01 00:56:30;;;;;;;7.50;3.08;;;;;;;19.66;96.18;101365.34;4999479;28;20049;-78
2022/08/01 00:58:56;;;;;;;5.38;3.38;;;;;;;19.63;96.00;101365.78;4996884;28;20061;-79
2022/08/01 01:01:22;;;;;;;5.60;3.55;;;;;;;19.68;95.67;101362.53;5026499;28;20037;-78
2022/08/01 01:03:52;;;;;;;5.25;3.30;;;;;;;19.70;96.35;101365.75;4997333;28;20064;-79
2022/08/01 01:06:23;;;;;;;5.60;3.08;;;;;;;19.64;96.89;101357.66;5013392;28;20037;-78
2022/08/01 01:09:15;;;;;;;8.77;3.90;;;;;;;19.57;96.58;101356.03;5011362;28;20335;-79
2022/08/01 01:12:22;;;;;;;6.32;3.75;;;;;;;19.63;95.65;101353.44;5027738;28;20037;-81
2022/08/01 01:14:59;;;;;;;5.00;3.67;;;;;;;19.50;96.29;101353.44;5007260;28;20041;-80
2022/08/01 01:18:02;;;;;;;8.63;3.35;;;;;;;19.51;96.65;101349.78;5048904;23;20143;-85
2022/08/01 01:20:35;;;;;;;6.28;3.85;;;;;;;19.47;96.94;101358.28;5055496;28;20042;-85
2022/08/01 01:23:30;;;;;;;;;;;;;;;19.49;97.15;101359.69;5030184;28;20064;-87
2022/08/01 01:26:23;;;;;;;6.20;3.55;;;;;;;19.52;96.83;101356.66;4992065;28;19917;-86
2022/08/01 01:28:55;;;;;;;8.20;3.85;;;;;;;19.55;96.85;101358.06;5045021;28;20067;-84
2022/08/01 01:31:24;;;;;;;8.95;3.72;;;;;;;19.50;96.92;101361.31;5047826;28;20108;-86
2022/08/01 01:33:52;;;;;;;6.72;3.95;;;;;;;19.43;97.57;101357.88;5050827;28;20025;-86
2022/08/01 01:36:19;;;;;;;5.82;3.47;;;;;;;19.50;97.24;101361.31;5047007;28;20043;-86
2022/08/01 01:38:46;;;;;;;5.85;3.33;;;;;;;19.52;96.66;101361.13;5067806;28;20041;-85
2022/08/01 01:41:15;;;;;;;4.53;3.33;;;;;;;19.52;96.75;101361.94;5065634;28;20821;-86
2022/08/01 01:43:42;;;;;;;7.22;3.72;;;;;;;19.49;96.89;101354.44;5049001;28;20177;-84
2022/08/01 01:46:09;;;;;;;7.18;4.18;;;;;;;19.44;96.77;101368.19;5064642;28;20033;-84
2022/08/01 01:48:36;;;;;;;7.15;4.13;;;;;;;19.49;96.20;101370.22;5064659;28;20060;-86
2022/08/01 01:51:03;;;;;;;7.00;3.67;;;;;;;19.43;97.32;101369.19;5069217;28;20039;-85
2022/08/01 01:53:33;;;;;;;7.13;3.22;;;;;;;19.40;97.25;101366.16;5070936;28;20822;-87
2022/08/01 01:56:00;;;;;;;9.55;4.00;;;;;;;19.40;96.82;101368.78;5070854;28;20100;-86
2022/08/01 01:58:28;;;;;;;9.50;4.25;;;;;;;19.37;96.99;101362.13;5069701;28;20028;-85
2022/08/01 02:00:56;;;;;;;5.65;3.63;;;;;;;19.39;96.84;101360.09;5053408;28;20041;-86
2022/08/01 02:03:23;;;;;;;6.38;3.38;;;;;;;19.40;97.06;101355.63;5067364;28;20425;-86
2022/08/01 02:05:51;;;;;;;7.72;3.90;;;;;;;19.37;96.95;101362.13;5055909;28;20029;-88
2022/08/01 02:08:17;;;;;;;8.15;3.72;;;;;;;19.39;97.17;101364.53;5070338;28;20033;-85
2022/08/01 02:13:40;;;;;;;6.28;3.78;;;;;;;19.55;95.99;101360.69;5071812;28;20172;-90
2022/08/01 02:16:06;;;;;;;9.35;4.53;;;;;;;19.59;95.61;101352.22;5044127;28;20159;-85
2022/08/01 02:18:33;;;;;;;7.68;4.43;;;;;;;19.43;96.18;101342.09;5049698;28;20040;-85
2022/08/01 02:21:03;;;;;;;7.93;4.32;;;;;;;19.47;95.96;101345.94;5059250;28;20021;-86
2022/08/01 02:23:33;;;;;;;6.57;4.70;;;;;;;19.31;96.89;101349.78;5071111;28;20025;-87
2022/08/01 02:26:02;;;;;;;8.30;4.50;;;;;;;19.30;96.63;101344.72;5070107;28;20028;-86
2022/08/01 02:28:36;;;;;;;10.23;5.45;;;;;;;19.33;96.94;101345.13;5070388;28;20024;-86
2022/08/01 02:31:06;;;;;;;7.90;4.47;;;;;;;19.33;97.10;101344.31;5065195;28;20046;-87
2022/08/01 02:33:38;;;;;;;15.43;5.72;;;;;;;19.36;96.72;101338.66;5071475;28;20321;-86
2022/08/01 02:36:06;;;;;;;9.80;5.55;;;;;;;19.46;96.20;101344.34;5060862;28;20046;-85
2022/08/01 02:38:35;;;;;;;10.75;5.38;;;;;;;19.43;96.35;101347.34;5073790;28;20024;-89
2022/08/01 02:41:12;;;;;;;7.95;5.00;;;;;;;19.37;96.85;101346.34;5074081;28;20096;-88
2022/08/01 02:43:42;;;;;;;14.82;5.25;;;;;;;19.38;96.93;101353.22;5067762;28;20024;-87
2022/08/01 02:46:12;;;;;;;9.10;5.20;;;;;;;19.31;97.65;101346.31;5074334;28;20028;-90
2022/08/01 02:49:06;;;;;;;8.10;5.65;;;;;;;19.35;97.48;101344.94;5065728;28;20057;-86
2022/08/01 02:51:34;;;;;;;9.65;5.35;;;;;;;19.33;97.74;101342.50;5048271;28;20054;-90
2022/08/01 02:54:02;;;;;;;12.38;6.10;;;;;;;19.36;97.75;101349.97;5055381;28;20044;-83
2022/08/01 02:56:34;;;;;;;10.02;6.15;;;;;;;19.32;97.79;101343.50;5063499;28;20060;-86
2022/08/01 02:59:03;;;;;;;10.45;5.72;;;;;;;19.31;98.19;101341.06;5035813;28;20039;-87
2022/08/01 03:01:30;;;;;;;15.50;5.65;;;;;;;19.30;98.34;101342.09;5055434;28;20043;-86
2022/08/01 03:03:55;;;;;;;8.45;5.63;;;;;;;19.35;98.24;101352.81;5056041;28;20048;-86
2022/08/01 03:06:22;;;;;;;9.07;6.13;;;;;;;19.35;97.98;101347.56;5088007;28;20040;-89
2022/08/01 03:08:48;;;;;;;11.63;5.85;;;;;;;19.35;97.52;101347.56;5063706;28;20032;-86
2022/08/01 03:11:15;;;;;;;14.32;7.20;;;;;;;19.34;98.09;101354.63;5057662;28;20092;-87
2022/08/01 03:13:43;;;;;;;13.02;7.15;;;;;;;19.32;97.93;101351.38;5078044;28;20036;-86
2022/08/01 03:16:10;;;;;;;11.57;6.65;;;;;;;19.33;98.45;101355.63;5069363;28;20033;-86
2022/08/01 03:18:37;;;;;;;11.32;7.43;;;;;;;19.37;98.20;101353.44;5065092;28;20086;-89
2022/08/01 03:21:05;;;;;;;12.85;6.90;;;;;;;19.25;98.76;101351.38;5055390;28;20496;-85
2022/08/01 03:23:31;;;;;;;12.80;7.13;;;;;;;19.36;98.34;101354.41;5064528;28;20033;-87
2022/08/01 03:25:59;;;;;;;11.45;6.88;;;;;;;19.30;98.18;101358.66;5071360;28;20029;-86
2022/08/01 03:28:26;;;;;;;12.98;7.22;;;;;;;19.28;99.03;101362.50;5072081;28;20043;-84
2022/08/01 03:30:52;;;;;;;12.25;7.80;;;;;;;19.24;98.81;101357.63;5045791;28;20039;-84
2022/08/01 03:33:18;;;;;;;15.50;9.32;;;;;;;19.21;98.85;101352.81;5050338;28;20044;-85
2022/08/01 03:35:48;;;;;;;17.95;8.35;;;;;;;19.13;99.41;101360.06;5065556;28;20067;-89
2022/08/01 03:38:18;;;;;;;13.43;8.48;;;;;;;19.26;99.35;101365.34;5051426;28;20024;-86
2022/08/01 03:40:49;;;;;;;12.73;8.32;;;;;;;19.22;99.20;101361.50;5050528;28;20059;-85
2022/08/01 03:43:26;;;;;;;13.38;9.00;;;;;;;19.17;99.83;101362.06;5063580;28;20059;-86
2022/08/01 03:45:53;;;;;;;16.15;9.77;;;;;;;19.15;99.52;101360.66;5055327;28;20067;-87
2022/08/01 03:48:27;;;;;;;16.70;9.52;;;;;;;19.17;99.85;101358.63;5052040;28;20040;-86
2022/08/01 03:50:53;;;;;;;14.70;9.82;;;;;;;19.20;99.72;101359.06;5063631;28;20126;-88
2022/08/01 03:53:24;;;;;;;21.13;9.73;;;;;;;19.21;99.16;101363.31;5074680;28;20040;-87
2022/08/01 03:55:51;;;;;;;17.42;8.55;;;;;;;19.12;100.00;101358.41;5073296;28;20597;-86
2022/08/01 03:58:17;;;;;;;13.23;9.48;;;;;;;19.16;100.00;101357.03;5064002;28;20405;-85
2022/08/01 04:00:43;;;;;;;19.98;9.88;;;;;;;19.15;100.00;101358.84;5058287;28;20079;-86
2022/08/01 04:03:10;;;;;;;19.80;10.02;;;;;;;19.13;100.00;101355.59;5055391;28;20028;-86
2022/08/01 04:05:35;;;;;;;15.52;10.18;;;;;;;19.15;100.00;101364.09;5069643;28;20058;-87
2022/08/01 04:08:02;;;;;;;13.70;9.73;;;;;;;19.14;100.00;101357.22;5073516;28;20032;-86
2022/08/01 04:10:28;;;;;;;17.08;10.38;;;;;;;19.14;100.00;101365.13;5061303;28;20032;-88
2022/08/01 04:12:54;;;;;;;16.52;9.35;;;;;;;19.16;100.00;101362.28;5056922;28;20036;-86
2022/08/01 04:15:20;;;;;;;16.77;8.57;;;;;;;19.14;100.00;101359.06;5072765;28;20032;-86
2022/08/01 04:17:46;;;;;;;17.02;10.50;;;;;;;19.12;100.00;101367.13;5075929;28;20040;-86
2022/08/01 04:20:13;;;;;;;18.88;11.07;;;;;;;19.11;100.00;101362.88;5056300;28;20031;-87
2022/08/01 04:22:39;;;;;;;16.40;10.07;;;;;;;19.17;100.00;101377.03;5075134;28;20028;-86
2022/08/01 04:25:12;;;;;;;16.15;9.45;;;;;;;19.13;100.00;101368.75;5076250;28;20037;-87
2022/08/01 04:27:42;;;;;;;15.73;9.40;;;;;;;19.12;100.00;101369.75;5053643;28;20033;-86
2022/08/01 04:30:09;;;;;;;20.38;11.52;;;;;;;19.13;100.00;101375.81;5054373;28;20021;-85
2022/08/01 04:32:38;;;;;;;21.08;11.23;;;;;;;19.18;100.00;101378.69;5068926;28;20108;-87
2022/08/01 04:35:09;;;;;;;20.02;10.93;;;;;;;19.16;100.00;101370.19;5053454;28;20056;-86
2022/08/01 04:37:37;;;;;;;17.30;11.30;;;;;;;19.20;100.00;101376.66;5061270;28;20039;-87
2022/08/01 04:40:07;;;;;;;23.60;12.00;;;;;;;19.23;99.87;101377.06;5059476;28;20032;-87
2022/08/01 04:42:33;;;;;;;18.02;11.40;;;;;;;19.22;99.49;101380.69;5059131;28;20035;-87
2022/08/01 04:45:00;;;;;;;16.85;10.82;;;;;;;19.24;99.66;101391.81;5054585;28;20047;-86
2022/08/01 04:47:26;;;;;;;16.25;11.00;;;;;;;19.17;100.00;101383.09;5058823;28;20111;-86
2022/08/01 04:49:53;;;;;;;18.20;10.30;;;;;;;19.15;100.00;101395.63;5071924;28;20043;-86
2022/08/01 04:52:19;;;;;;;17.80;11.45;;;;;;;19.18;100.00;101400.50;5076039;28;20043;-86
2022/08/01 04:54:46;;;;;;;20.67;11.65;;;;;;;19.14;100.00;101399.28;5055177;28;20032;-86
2022/08/01 04:57:12;;;;;;;16.45;9.65;;;;;;;19.14;99.93;101401.09;5065571;28;20024;-85
2022/08/01 04:59:43;;;;;;;21.10;11.13;;;;;;;19.14;100.00;101399.28;5050165;28;20039;-86
2022/08/01 05:02:18;;;;;;;18.63;11.00;;;;;;;19.15;100.00;101403.50;5074124;28;20032;-86
2022/08/01 05:04:45;;;;;;;16.77;10.43;;;;;;;19.12;100.00;101409.19;5082860;28;20063;-86
2022/08/01 05:07:11;;;;;;;20.10;12.68;;;;;;;19.15;100.00;101406.16;5071558;28;20024;-86
2022/08/01 05:09:38;;;;;;;17.58;10.90;;;;;;;19.16;100.00;101409.59;5078795;28;20032;-87
2022/08/01 05:12:10;;;;;;;15.30;10.02;;;;;;;19.21;100.00;101407.16;5051331;28;20037;-87
2022/08/01 05:14:36;;;;;;;21.03;10.90;;;;;;;19.23;99.88;101413.03;5061745;28;20121;-87
2022/08/01 05:17:06;;;;;;;19.90;11.65;;;;;;;19.24;99.62;101415.47;5069383;28;20495;-86
2022/08/01 05:19:32;;;;;;;16.13;10.77;;;;;;;19.24;99.57;101417.31;5049559;28;20060;-88
2022/08/01 05:22:00;;;;;;;24.33;11.98;;;;;;;19.21;99.87;101415.06;5065070;28;20087;-86
2022/08/01 05:24:36;;;;;;;21.23;11.38;;;;;;;19.28;99.10;101415.09;5064763;28;20032;-89
2022/08/01 05:27:03;;;;;;;16.27;11.00;;;;;;;19.28;99.17;101420.34;5048683;28;20028;-87
2022/08/01 05:29:29;;;;;;;19.88;11.93;;;;;;;19.31;98.77;101419.94;5062148;28;20092;-87
2022/08/01 05:31:55;;;;;;;18.52;11.70;;;;;;;19.28;99.29;101422.97;5062534;28;20067;-87
2022/08/01 05:34:23;;;;;;;21.05;12.50;;;;;;;19.28;99.33;101422.97;5064440;28;20222;-88
2022/08/01 05:36:48;;;;;;;18.70;12.02;;;;;;;19.23;99.70;101427.00;5041078;28;20033;-89
2022/08/01 05:39:14;;;;;;;22.23;11.73;;;;;;;19.26;98.82;101431.06;5050780;28;20044;-87
2022/08/01 05:41:43;;;;;;;17.05;11.25;;;;;;;19.24;99.17;101433.88;5052762;28;20035;-90
2022/08/01 05:44:09;;;;;;;22.88;11.98;;;;;;;19.19;99.58;101436.31;5081708;28;20608;-87
2022/08/01 05:46:35;;;;;;;23.60;12.95;;;;;;;19.23;99.49;101434.06;5048627;28;20037;-87
2022/08/01 05:49:02;;;;;;;21.80;12.50;;;;;;;19.26;99.32;101434.47;5065822;28;20063;-87
2022/08/01 05:51:27;;;;;;;19.58;12.98;;;;;;;19.21;99.61;101436.09;5066661;28;20437;-87
2022/08/01 05:53:54;;;;;;;19.25;10.52;;;;;;;19.17;99.91;101433.03;5049374;28;20047;-87
2022/08/01 05:56:21;;;;;;;16.30;10.18;;;;;;;19.19;100.00;101432.84;5067237;28;20036;-89
2022/08/01 05:58:47;;;;;;;18.85;11.70;;;;;;;19.28;100.00;101436.13;5050704;28;20059;-86
2022/08/01 06:01:13;;;;;;;18.65;12.98;;;;;;;19.31;100.00;101431.28;5066062;28;20024;-86
2022/08/01 06:03:38;;;;;;;16.40;11.60;;;;;;;19.30;100.00;101432.28;5066717;28;20504;-87
2022/08/01 06:06:04;;;;;;;19.20;12.27;;;;;;;19.32;100.00;101439.97;5046414;28;20038;-87
2022/08/01 06:08:35;;;;;;;21.10;12.45;;;;;;;19.33;99.63;101439.78;5061623;28;20032;-90
2022/08/01 06:11:01;;;;;;;20.67;12.02;;;;;;;19.40;99.28;101439.78;5067352;28;20046;-88
2022/08/01 06:13:26;;;;;;;19.52;12.05;;;;;;;19.39;99.20;101433.72;5064024;28;20037;-85
2022/08/01 06:15:52;;;;;;;21.23;13.15;;;;;;;19.38;99.28;101424.22;5051841;28;20039;-86
2022/08/01 06:18:18;;;;;;;19.77;12.73;;;;;;;19.43;98.62;101419.16;5064824;28;20032;-86
2022/08/01 06:20:44;;;;;;;20.63;13.32;;;;;;;19.46;98.44;101423.22;5047692;28;20032;-88
2022/08/01 06:23:09;;;;;;;17.73;12.10;;;;;;;19.45;97.38;101421.59;5053476;28;20040;-87
2022/08/01 06:25:36;;;;;;;23.55;12.70;;;;;;;19.47;96.75;101430.09;5074035;28;20037;-86
2022/08/01 06:28:02;;;;;;;18.48;10.63;;;;;;;19.49;97.43;101422.00;5062738;28;20040;-86
2022/08/01 06:30:28;;;;;;;16.70;10.55;;;;;;;19.49;97.57;101433.31;5045584;28;20383;-87
2022/08/01 06:32:55;;;;;;;16.05;9.98;;;;;;;19.52;97.52;101426.88;5064105;28;20090;-86
2022/08/01 06:35:24;;;;;;;21.33;13.48;;;;;;;19.54;97.07;101424.84;5060028;28;20060;-89
2022/08/01 06:37:50;;;;;;;19.95;10.07;;;;;;;19.54;94.48;101427.47;5055220;28;20024;-87
2022/08/01 06:40:15;;;;;;;15.25;10.75;;;;;;;19.50;95.08;101427.06;5056875;28;20070;-86
2022/08/01 06:42:45;;;;;;;17.92;11.95;;;;;;;19.58;94.32;101428.69;5042704;28;20032;-87
2022/08/01 06:45:12;;;;;;;17.65;10.80;;;;;;;19.60;94.01;101430.09;5061196;28;20490;-87
2022/08/01 06:47:38;;;;;;;32.55;18.45;;;;;;;19.63;94.31;101434.97;5068282;28;20059;-87
2022/08/01 06:50:08;;;;;;;18.50;10.93;;;;;;;19.75;94.27;101432.56;5062850;28;20125;-90
2022/08/01 06:52:34;;;;;;;22.58;10.80;;;;;;;19.73;93.61;101437.22;5046580;28;20093;-87
2022/08/01 06:54:59;;;;;;;17.55;9.60;;;;;;;19.67;94.01;101431.94;5046446;28;20641;-88
2022/08/01 06:57:25;;;;;;;15.70;10.63;;;;;;;19.75;94.06;101429.94;5070193;28;20036;-86
2022/08/01 06:59:52;;;;;;;16.90;9.52;;;;;;;19.76;94.33;101438.66;5045890;28;20025;-87
2022/08/01 07:02:18;;;;;;;16.42;9.27;;;;;;;20.19;93.78;101439.06;5050525;28;20090;-87
2022/08/01 07:04:43;;;;;;;15.70;10.80;;;;;;;20.87;89.62;101440.56;5050220;28;20028;-86
2022/08/01 07:07:09;;;;;;;15.98;10.43;;;;;;;21.39;86.57;101438.66;5045166;28;20032;-88
2022/08/01 07:09:34;;;;;;;17.77;10.73;;;;;;;21.71;84.80;101429.94;5072167;28;20048;-87
2022/08/01 07:12:00;;;;;;;18.08;11.85;;;;;;;21.53;83.53;101431.50;5044489;28;20656;-87
2022/08/01 07:14:26;;;;;;;19.35;10.15;;;;;;;22.03;80.96;101425.41;5054392;28;20037;-87
2022/08/01 07:16:51;;;;;;;15.52;9.75;;;;;;;22.83;76.74;101419.31;5062907;28;20047;-89
2022/08/01 07:19:20;;;;;;;17.02;9.35;;;;;;;23.49;72.74;101417.59;5044089;28;20040;-89
2022/08/01 07:21:45;;;;;;;16.90;9.88;;;;;;;23.15;72.03;101421.78;5054264;28;20078;-87
2022/08/01 07:24:13;;;;;;;15.88;9.18;;;;;;;22.99;72.86;101427.66;5074151;28;20036;-86
2022/08/01 07:26:40;;;;;;;13.77;8.68;;;;;;;23.51;72.16;101427.97;5047221;28;20028;-89
2022/08/01 07:29:06;;;;;;;13.57;8.77;;;;;;;23.97;69.83;101421.13;5061918;28;20028;-88
2022/08/01 07:31:32;;;;;;;25.25;7.93;;;;;;;23.98;69.22;101422.75;5055947;28;20111;-86
2022/08/01 07:33:57;;;;;;;10.40;6.75;;;;;;;23.65;70.79;101417.97;5040252;28;20043;-88
2022/08/01 07:36:22;;;;;;;9.25;6.47;;;;;;;23.34;71.74;101427.81;5041667;28;20035;-88
2022/08/01 07:38:51;;;;;;;8.38;5.65;;;;;;;23.12;71.97;101424.88;5040918;28;20962;-90
2022/08/01 07:41:17;;;;;;;6.82;4.78;;;;;;;22.77;70.42;101435.25;5037766;28;20429;-92
2022/08/01 07:43:42;;;;;;;8.55;4.20;;;;;;;22.69;71.28;101445.09;5037992;28;20114;-90
2022/08/01 07:46:08;;;;;;;7.40;4.63;;;;;;;22.60;72.44;101437.69;5045202;28;20119;-87
2022/08/01 07:48:36;;;;;;;6.88;4.60;;;;;;;22.66;72.37;101450.81;5037287;28;20694;-90
2022/08/01 07:51:01;;;;;;;7.70;4.50;;;;;;;22.62;72.48;101443.53;5057657;28;20039;-92
2022/08/01 07:53:30;;;;;;;11.35;5.55;;;;;;;22.33;72.52;101440.59;5061985;28;20431;-91
2022/08/01 07:55:56;;;;;;;8.20;5.60;;;;;;;22.68;71.26;101440.84;5042005;28;20120;-88
2022/08/01 07:58:21;;;;;;;9.85;5.50;;;;;;;22.84;71.73;101444.72;5030924;28;20040;-88
2022/08/01 08:00:49;;;;;;;6.93;4.97;;;;;;;22.86;70.93;101442.63;5056435;28;20036;-89
2022/08/01 08:03:25;;;;;;;6.28;4.80;;;;;;;22.64;71.14;101444.97;5037589;28;20036;-89
2022/08/01 08:05:53;;;;;;;5.72;4.15;;;;;;;22.65;71.38;101451.84;5042857;28;20028;-88
2022/08/01 08:08:18;;;;;;;6.47;4.32;;;;;;;23.33;69.11;101442.06;5061614;28;20105;-87
2022/08/01 08:10:45;;;;;;;6.65;4.43;;;;;;;23.25;68.78;101440.53;5054477;28;20405;-90
2022/08/01 08:13:11;;;;;;;9.52;5.10;;;;;;;23.58;67.82;101447.19;5042516;28;20047;-87
2022/08/01 08:15:37;;;;;;;6.20;4.18;;;;;;;23.71;67.35;101440.88;5063190;28;20134;-88
2022/08/01 08:18:03;;;;;;;6.47;4.03;;;;;;;23.74;67.36;101444.94;5062624;28;20029;-87
2022/08/01 08:20:36;;;;;;;7.50;4.75;;;;;;;24.48;63.45;101453.22;5061632;28;20028;-90
2022/08/01 08:23:01;;;;;;;6.78;4.00;;;;;;;24.40;62.93;101449.09;5059979;28;20101;-86
2022/08/01 08:25:28;;;;;;;6.22;3.50;;;;;;;24.25;64.18;101457.50;5039003;28;20040;-87
2022/08/01 08:27:57;;;;;;;5.65;3.35;;;;;;;24.75;63.54;101452.75;5040414;28;20029;-91
2022/08/01 08:30:26;;;;;;;4.00;3.08;;;;;;;24.53;64.16;101450.72;5057680;28;20043;-91
2022/08/01 08:32:52;;;;;;;6.65;3.38;;;;;;;24.34;63.42;101457.19;5066747;28;20021;-87
2022/08/01 08:35:17;;;;;;;5.18;3.10;;;;;;;24.13;64.50;101455.91;5037063;28;20029;-88
2022/08/01 08:37:49;;;;;;;6.57;3.10;;;;;;;24.32;64.66;101457.41;5037257;28;20024;-87
2022/08/01 08:40:15;;;;;;;3.97;2.85;;;;;;;25.22;61.02;101452.56;5058233;28;20083;-88
2022/08/01 08:42:41;;;;;;;6.20;3.35;;;;;;;25.13;62.09;101451.31;5058373;28;20028;-90
2022/08/01 08:45:09;;;;;;;4.32;2.60;;;;;;;24.90;62.28;101453.03;5065217;28;20477;-90
2022/08/01 08:47:35;;;;;;;5.13;3.17;;;;;;;25.21;61.38;101458.91;5057051;28;20456;-86
2022/08/01 08:50:08;;;;;;;4.60;2.95;;;;;;;25.24;61.00;101459.28;5069923;28;20036;-89
2022/08/01 08:52:37;;;;;;;4.05;3.00;;;;;;;25.12;60.99;101449.72;5057427;28;20033;-91
2022/08/01 08:55:03;;;;;;;3.13;2.50;;;;;;;25.08;60.54;101453.91;5057351;28;20059;-87
2022/08/01 08:57:30;;;;;;;4.40;3.03;;;;;;;24.99;60.70;101453.47;5050447;28;20338;-91
2022/08/01 08:59:56;;;;;;;4.72;3.10;;;;;;;24.93;59.99;101465.81;5043125;28;20032;-90
2022/08/01 09:02:22;;;;;;;4.30;2.63;;;;;;;25.60;58.96;101453.78;5046035;28;20040;-86
2022/08/01 09:04:49;;;;;;;3.75;3.00;;;;;;;26.12;57.32;101450.88;5055664;28;20024;-88
2022/08/01 09:07:15;;;;;;;3.97;3.00;;;;;;;26.83;56.40;101452.84;5057977;28;20493;-85
2022/08/01 09:09:40;;;;;;;3.97;2.65;;;;;;;27.13;54.06;101457.69;5045237;28;20090;-88
2022/08/01 09:12:06;;;;;;;6.38;3.90;;;;;;;26.78;53.84;101460.78;5039825;28;20033;-86
2022/08/01 09:14:32;;;;;;;4.07;2.90;;;;;;;26.15;56.26;101462.88;5058738;28;20056;-86
2022/08/01 09:17:11;;;;;;;4.40;2.20;;;;;;;25.50;58.98;101467.66;5048794;28;20477;-90
2022/08/01 09:19:55;;;;;;;3.40;1.88;;;;;;;25.57;58.23;101472.84;5054199;28;20056;-91
2022/08/01 09:22:23;;;;;;;3.65;2.20;;;;;;;24.77;58.03;101472.69;5043792;28;20085;-88
2022/08/01 09:25:16;;;;;;;4.00;2.80;;;;;;;25.17;58.04;101477.16;5032013;28;20029;-91
2022/08/01 09:27:42;;;;;;;3.40;2.28;;;;;;;26.09;56.30;101471.81;5067250;28;20066;-86
2022/08/01 09:30:15;;;;;;;2.80;2.13;;;;;;;26.76;54.08;101471.66;5058097;28;20032;-87
2022/08/01 09:32:54;;;;;;;2.75;2.25;;;;;;;26.90;53.69;101468.59;5056972;28;20032;-88
2022/08/01 09:35:29;;;;;;;2.67;2.22;;;;;;;26.64;55.03;101471.00;5060601;28;20037;-86
2022/08/01 09:38:15;;;;;;;5.00;2.33;;;;;;;26.45;56.21;101472.28;5046221;28;20703;-90
2022/08/01 09:40:46;;;;;;;3.67;2.30;;;;;;;26.00;58.61;101477.53;5050454;28;20029;-85
2022/08/01 09:43:12;;;;;;;7.70;2.60;;;;;;;25.79;58.26;101480.91;5041744;28;20485;-86
2022/08/01 09:45:37;;;;;;;7.78;3.30;;;;;;;25.16;59.58;101480.84;5038430;28;20028;-85
2022/08/01 09:48:08;;;;;;;5.40;3.17;;;;;;;24.77;60.82;101482.47;5036947;28;20039;-85
2022/08/01 09:50:42;;;;;;;5.85;2.97;;;;;;;24.65;61.04;101480.66;5038085;28;20039;-86
2022/08/01 09:53:08;;;;;;;5.82;2.20;;;;;;;24.72;60.63;101490.34;5059233;28;20062;-86
2022/08/01 09:55:34;;;;;;;2.65;1.88;;;;;;;24.71;61.23;101476.25;5058978;28;20025;-86
2022/08/01 09:58:00;;;;;;;3.00;2.30;;;;;;;25.52;59.64;101472.75;5043941;28;20020;-86
2022/08/01 10:00:26;;;;;;;4.18;2.20;;;;;;;25.89;57.54;101473.09;5039432;28;20033;-89
2022/08/01 10:02:52;;;;;;;3.45;1.45;;;;;;;26.54;54.54;101468.97;5038360;28;20063;-88
2022/08/01 10:05:29;;;;;;;2.75;1.48;;;;;;;27.20;52.53;101462.81;5056020;28;20032;-86
2022/08/01 10:08:05;;;;;;;3.90;1.95;;;;;;;27.50;51.92;101469.50;5055559;28;20056;-88
2022/08/01 10:10:31;;;;;;;3.65;2.13;;;;;;;26.79;53.22;101471.16;5070189;28;20047;-89
2022/08/01 10:12:58;;;;;;;3.67;2.03;;;;;;;26.07;55.04;101472.06;5053558;28;20020;-91
2022/08/01 10:15:28;;;;;;;2.97;1.80;;;;;;;25.48;56.29;101467.09;5040987;28;20083;-89
2022/08/01 10:18:05;;;;;;;2.78;1.70;;;;;;;25.30;56.30;101473.44;5055761;28;20033;-86
2022/08/01 10:20:32;;;;;;;3.13;1.67;;;;;;;25.18;56.95;101470.00;5056933;28;20038;-89
2022/08/01 10:23:04;;;;;;;3.20;1.92;;;;;;;25.16;56.43;101461.47;5054444;28;20059;-85
2022/08/01 10:25:36;;;;;;;4.38;2.15;;;;;;;25.58;56.43;101459.34;5048414;28;20021;-86
2022/08/01 10:28:15;;;;;;;2.22;1.25;;;;;;;26.05;54.24;101462.72;5053710;28;20040;-88
2022/08/01 10:30:42;;;;;;;1.95;1.30;;;;;;;26.47;52.59;101459.59;5057001;28;20035;-91
2022/08/01 10:33:08;;;;;;;3.92;1.98;;;;;;;26.88;53.27;101460.91;5038092;28;20123;-86
2022/08/01 10:35:34;;;;;;;2.85;1.52;;;;;;;26.69;52.62;101471.06;5037818;28;20532;-87
2022/08/01 10:38:00;;;;;;;2.70;1.20;;;;;;;26.90;53.87;101471.25;5056421;28;20050;-86
2022/08/01 10:40:27;;;;;;;5.68;2.28;;;;;;;26.90;52.46;101480.06;5031119;28;20108;-90
2022/08/01 10:42:59;;;;;;;6.75;4.30;;;;;;;26.41;52.32;101478.13;5067574;28;20693;-91
2022/08/01 10:45:26;;;;;;;2.33;1.30;;;;;;;26.12;53.33;101481.94;5034234;28;20033;-85
2022/08/01 10:48:12;;;;;;;2.08;1.38;;;;;;;25.74;53.04;101476.31;5032285;28;20054;-86
2022/08/01 10:50:49;;;;;;;1.65;0.90;;;;;;;25.58;52.73;101485.88;5038653;28;20549;-85
2022/08/01 10:53:21;;;;;;;1.73;1.23;;;;;;;26.00;52.84;101482.06;5051871;28;20051;-87
2022/08/01 10:55:51;;;;;;;1.83;1.13;;;;;;;26.28;52.19;101475.81;5038951;28;20037;-86
2022/08/01 10:58:28;;;;;;;2.40;1.35;;;;;;;26.60;51.40;101473.34;5036322;28;20028;-87
2022/08/01 11:01:18;;;;;;;1.90;1.20;;;;;;;26.76;50.13;101460.22;5032405;28;20103;-85
2022/08/01 11:03:55;;;;;;;1.92;1.55;;;;;;;26.91;50.04;101457.72;5036057;28;20067;-85
2022/08/01 11:06:25;;;;;;;1.58;1.33;;;;;;;27.07;49.42;101457.88;5048916;28;20035;-87
2022/08/01 11:09:24;;;;;;;1.40;1.10;;;;;;;27.45;47.37;101456.16;5037165;28;20378;-85
2022/08/01 11:12:00;;;;;;;1.95;0.70;;;;;;;27.32;44.71;101455.50;5030926;28;20485;-89
2022/08/01 11:14:26;;;;;;;1.88;0.70;;;;;;;27.30;43.86;101449.63;5032702;28;20040;-85
2022/08/01 11:16:51;;;;;;;0.70;0.60;;;;;;;27.21;44.09;101450.31;5042315;28;20028;-84
2022/08/01 11:19:17;;;;;;;0.82;0.40;;;;;;;27.38;43.44;101448.34;5050844;28;20036;-86
2022/08/01 11:21:52;;;;;;;0.88;0.70;;;;;;;27.43;43.85;101439.63;5055858;28;20550;-88
2022/08/01 11:24:45;;;;;;;1.20;0.80;;;;;;;27.81;43.25;101438.56;5053895;28;20424;-86
2022/08/01 11:27:19;;;;;;;1.00;0.60;;;;;;;27.93;43.08;101444.56;5044235;28;20032;-86
2022/08/01 11:30:19;;;;;;;1.13;0.90;;;;;;;27.76;43.51;101441.19;5054370;28;20067;-82